createdAt,value
2023-04-15T00:07:31.330Z,12.33
2023-04-15T00:12:42.390Z,8.75
2023-04-15T00:36:38.583Z,8.68
2023-04-15T00:41:43.294Z,8.20
2023-04-15T00:46:42.271Z,7.47
2023-04-15T00:51:52.547Z,8.43
2023-04-15T00:56:50.020Z,7.90
2023-04-15T01:01:46.996Z,7.05
2023-04-15T01:06:43.444Z,7.63
2023-04-15T01:11:49.405Z,7.13
2023-04-15T01:22:45.757Z,12.05
2023-04-15T01:27:42.506Z,8.57
2023-04-15T01:32:39.085Z,9.07
2023-04-15T01:37:36.728Z,10.80
2023-04-15T01:42:33.679Z,8.98
2023-04-15T01:47:30.343Z,9.32
2023-04-15T01:52:26.880Z,8.88
2023-04-15T01:57:23.262Z,11.48
2023-04-15T02:02:19.796Z,11.73
2023-04-15T02:07:16.466Z,9.55
2023-04-15T02:12:13.402Z,12.95
2023-04-15T02:17:09.819Z,12.77
2023-04-15T02:22:09.094Z,12.73
2023-04-15T02:27:06.028Z,13.05
2023-04-15T02:32:02.575Z,12.18
2023-04-15T02:36:59.079Z,13.82
2023-04-15T02:41:55.604Z,11.73
2023-04-15T02:46:53.599Z,13.50
2023-04-15T02:51:51.120Z,12.07
2023-04-15T02:56:47.783Z,14.93
2023-04-15T03:01:44.453Z,16.70
2023-04-15T03:06:40.869Z,16.17
2023-04-15T03:11:40.621Z,17.85
2023-04-15T03:16:37.085Z,16.38
2023-04-15T03:21:33.521Z,21.70
2023-04-15T03:26:31.599Z,19.88
2023-04-15T03:31:28.077Z,20.10
2023-04-15T03:36:24.626Z,28.30
2023-04-15T03:41:24.306Z,21.33
2023-04-15T03:46:21.370Z,21.73
2023-04-15T03:51:21.926Z,22.70
2023-04-15T04:14:35.198Z,24.10
2023-04-15T04:19:31.654Z,21.95
2023-04-15T04:24:28.180Z,21.17
2023-04-15T04:29:31.139Z,24.48
2023-04-15T04:34:29.067Z,22.23
2023-04-15T04:39:40.086Z,24.48
2023-04-15T04:50:03.493Z,30.52
2023-04-15T04:54:59.903Z,34.45
2023-04-15T04:59:56.560Z,33.80
2023-04-15T05:04:54.461Z,49.05
2023-04-15T05:09:50.909Z,40.38
2023-04-15T05:14:47.463Z,47.58
2023-04-15T05:19:43.895Z,43.28
2023-04-15T06:07:37.519Z,39.03
2023-04-15T06:12:34.127Z,44.17
2023-04-15T06:35:04.898Z,40.70
2023-04-15T06:40:01.384Z,48.13
2023-04-15T06:44:57.974Z,57.08
2023-04-15T06:50:21.913Z,46.17
2023-04-15T06:55:18.421Z,39.17
2023-04-15T07:00:15.648Z,48.28
2023-04-15T07:05:12.698Z,51.55
2023-04-15T07:10:09.931Z,41.15
2023-04-15T07:15:07.033Z,65.68
2023-04-15T07:20:04.824Z,53.40
2023-04-15T07:25:01.345Z,54.50
2023-04-15T07:29:57.843Z,53.70
2023-04-15T07:34:54.434Z,54.63
2023-04-15T07:40:42.314Z,54.53
2023-04-15T07:45:38.715Z,48.22
2023-04-15T07:50:35.496Z,45.22
2023-04-15T07:55:31.943Z,48.63
2023-04-15T08:00:28.412Z,51.13
2023-04-15T08:05:25.668Z,47.47
2023-04-15T08:10:22.501Z,41.40
2023-04-15T08:15:19.003Z,43.90
2023-04-15T08:20:15.434Z,47.88
2023-04-15T08:25:11.823Z,59.88
2023-04-15T08:30:08.963Z,48.33
2023-04-15T08:35:06.274Z,56.55
2023-04-15T08:40:02.797Z,46.85
2023-04-15T08:45:01.578Z,46.28
2023-04-15T08:49:58.550Z,46.38
2023-04-15T08:55:00.801Z,50.05
2023-04-15T08:59:57.755Z,46.65
2023-04-15T09:04:54.172Z,55.78
2023-04-15T09:09:51.568Z,45.40
2023-04-15T09:14:49.351Z,52.50
2023-04-15T09:19:45.961Z,48.22
2023-04-15T09:24:43.372Z,44.53
2023-04-15T09:29:41.743Z,54.25
2023-04-15T09:34:38.336Z,43.47
2023-04-15T09:39:51.910Z,56.28
2023-04-15T09:44:48.383Z,44.10
2023-04-15T09:49:56.518Z,48.75
2023-04-15T09:54:56.005Z,38.08
2023-04-15T09:59:52.721Z,42.63
2023-04-15T10:04:49.686Z,36.65
2023-04-15T10:09:46.907Z,37.08
2023-04-15T10:14:44.458Z,37.88
2023-04-15T10:19:41.707Z,35.95
2023-04-15T10:24:38.968Z,29.63
2023-04-15T10:29:35.840Z,28.67
2023-04-15T10:34:32.684Z,24.23
2023-04-15T10:39:41.149Z,30.50
2023-04-15T10:44:38.955Z,25.08
2023-04-15T10:49:42.605Z,24.60
2023-04-15T10:54:39.558Z,19.77
2023-04-15T10:59:37.756Z,18.42
2023-04-15T11:04:53.244Z,21.02
2023-04-15T11:09:49.802Z,15.70
2023-04-15T11:14:46.617Z,16.67
2023-04-15T11:19:43.650Z,15.93
2023-04-15T11:24:52.041Z,11.00
2023-04-15T11:29:48.615Z,14.48
2023-04-15T11:34:46.577Z,14.90
2023-04-15T11:39:43.020Z,17.02
2023-04-15T11:44:39.440Z,16.08
2023-04-15T11:49:40.071Z,18.65
2023-04-15T11:54:37.438Z,15.25
2023-04-15T11:59:46.001Z,15.00
2023-04-15T12:04:43.026Z,13.38
2023-04-15T12:09:40.064Z,16.35
2023-04-15T12:14:38.174Z,16.58
2023-04-15T12:19:41.599Z,12.55
2023-04-15T12:24:38.599Z,14.77
2023-04-15T12:29:36.938Z,12.65
2023-04-15T12:34:45.250Z,13.50
2023-04-15T12:39:43.431Z,14.20
2023-04-15T12:44:40.376Z,16.75
2023-04-15T12:49:37.536Z,14.38
2023-04-15T12:54:34.697Z,11.70
2023-04-15T12:59:31.226Z,13.07
2023-04-15T13:04:30.619Z,13.95
2023-04-15T13:09:27.261Z,16.80
2023-04-15T13:14:23.719Z,11.85
2023-04-15T13:19:20.137Z,16.77
2023-04-15T13:24:16.589Z,14.85
2023-04-15T13:29:14.020Z,13.35
2023-04-15T13:34:10.561Z,12.48
2023-04-15T13:39:07.045Z,13.35
2023-04-15T13:44:03.583Z,13.35
2023-04-15T13:49:00.162Z,13.45
2023-04-15T13:53:58.127Z,13.00
2023-04-15T13:58:58.692Z,12.73
2023-04-15T14:03:55.768Z,12.20
2023-04-15T14:08:53.082Z,14.65
2023-04-15T14:13:49.625Z,10.60
2023-04-15T14:18:48.240Z,11.23
2023-04-15T14:23:44.720Z,13.60
2023-04-15T14:28:41.142Z,12.82
2023-04-15T14:33:37.604Z,13.32
2023-04-15T14:38:38.313Z,12.57
2023-04-15T14:43:35.275Z,13.35
2023-04-15T14:48:32.065Z,10.25
2023-04-15T14:53:28.589Z,10.45
2023-04-15T14:58:25.513Z,10.88
2023-04-15T15:03:22.212Z,11.10
2023-04-15T15:08:18.765Z,10.25
2023-04-15T15:13:15.692Z,12.18
2023-04-15T15:18:12.322Z,11.93
2023-04-15T15:23:08.855Z,11.52
2023-04-15T15:28:05.824Z,10.60
2023-04-15T15:33:02.448Z,11.52
2023-04-15T15:38:00.515Z,11.88
2023-04-15T15:42:56.985Z,13.10
2023-04-15T15:47:53.571Z,13.02
2023-04-15T15:52:50.195Z,14.63
2023-04-15T15:57:46.720Z,13.20
2023-04-15T16:07:42.993Z,13.10
2023-04-15T16:12:39.732Z,15.00
2023-04-15T16:17:36.317Z,13.30
2023-04-15T16:22:34.961Z,16.30
2023-04-15T16:27:31.520Z,18.75
2023-04-15T16:32:28.096Z,15.63
2023-04-15T16:37:24.541Z,24.30
2023-04-15T16:42:21.034Z,18.80
2023-04-15T16:47:17.573Z,16.20
2023-04-15T16:52:14.144Z,18.55
2023-04-15T16:57:10.586Z,17.30
2023-04-15T17:02:11.339Z,20.65
2023-04-15T17:07:08.934Z,20.52
2023-04-15T17:12:06.124Z,20.08
2023-04-15T17:17:02.527Z,16.52
2023-04-15T17:21:59.545Z,18.65
2023-04-15T17:26:56.767Z,23.95
2023-04-15T17:31:54.642Z,19.05
2023-04-15T17:36:53.418Z,17.17
2023-04-15T17:41:49.865Z,18.33
2023-04-15T17:46:47.157Z,20.70
2023-04-15T17:51:44.881Z,20.75
2023-04-15T17:56:41.615Z,25.50
2023-04-15T18:01:38.395Z,22.52
2023-04-15T18:06:38.725Z,21.90
2023-04-15T18:11:35.720Z,24.23
2023-04-15T18:16:32.533Z,22.05
2023-04-15T18:21:29.182Z,25.20
2023-04-15T18:26:25.958Z,24.67
2023-04-15T18:31:22.745Z,24.02
2023-04-15T18:36:19.381Z,23.08
2023-04-15T18:41:18.904Z,22.23
2023-04-15T18:46:16.744Z,19.35
2023-04-15T18:51:13.791Z,23.98
2023-04-15T18:56:10.522Z,22.63
2023-04-15T19:01:07.138Z,23.40
2023-04-15T19:06:03.964Z,20.83
2023-04-15T19:11:00.884Z,22.85
2023-04-15T19:15:57.537Z,25.30
2023-04-15T19:20:55.983Z,23.17
2023-04-15T19:25:52.482Z,23.35
2023-04-15T19:30:49.181Z,22.80
2023-04-15T19:35:49.835Z,20.08
2023-04-15T19:40:46.920Z,19.90
2023-04-15T19:45:46.225Z,24.92
2023-04-15T19:50:43.138Z,20.63
2023-04-15T19:55:40.005Z,23.23
2023-04-15T20:00:37.002Z,23.38
2023-04-15T20:05:33.771Z,22.52
2023-04-15T20:10:31.989Z,27.90
2023-04-15T20:15:28.893Z,22.85
2023-04-15T20:20:25.433Z,23.60
2023-04-15T20:25:22.101Z,20.85
2023-04-15T20:30:19.211Z,20.77
2023-04-15T20:35:16.238Z,23.15
2023-04-15T20:40:15.583Z,22.08
2023-04-15T20:45:12.303Z,21.80
2023-04-15T20:50:10.001Z,21.70
2023-04-15T20:55:09.982Z,23.40
2023-04-15T21:00:09.280Z,23.55
2023-04-15T21:05:06.238Z,25.08
2023-04-15T21:10:02.885Z,28.23
2023-04-15T21:14:59.334Z,21.65
2023-04-15T21:19:56.052Z,21.02
2023-04-15T21:24:52.473Z,22.40
2023-04-15T21:29:49.708Z,23.40
2023-04-15T21:34:47.200Z,21.13
2023-04-15T21:39:45.058Z,23.33
2023-04-15T21:44:42.767Z,23.63
2023-04-15T21:49:40.096Z,28.35
2023-04-15T21:54:38.015Z,24.00
2023-04-15T21:59:34.519Z,22.70
2023-04-15T22:04:30.996Z,25.65
2023-04-15T22:09:28.150Z,21.73
2023-04-15T22:14:25.337Z,24.80
2023-04-15T22:19:22.223Z,24.08
2023-04-15T22:24:32.973Z,20.58
2023-04-15T22:29:36.549Z,24.60
2023-04-15T22:34:33.993Z,22.30
2023-04-15T22:39:30.420Z,29.23
2023-04-15T22:44:26.816Z,23.65
2023-04-15T22:49:23.249Z,24.25
2023-04-15T22:54:20.806Z,23.88
2023-04-15T22:59:17.449Z,22.48
2023-04-15T23:04:23.638Z,29.65
2023-04-15T23:09:23.715Z,24.58
2023-04-15T23:14:20.322Z,23.05
2023-04-15T23:19:26.393Z,24.25
2023-04-15T23:24:23.064Z,27.23
2023-04-15T23:29:46.664Z,24.65
2023-04-15T23:34:52.368Z,25.10
2023-04-15T23:40:04.197Z,23.13
2023-04-15T23:51:27.095Z,23.27
2023-04-15T23:56:23.519Z,23.45
